sensor_id;sensor_type;location;lat;lon;timestamp;P1;P2;P0
31330;PMS5003;34067;39.548;-76.088;2022-12-29T00:02:10;37;33;
31330;PMS5003;34067;39.548;-76.088;2022-12-29T00:04:39;24;24;
31330;PMS5003;34067;39.548;-76.088;2022-12-29T00:07:07;70;70;
31330;PMS5003;34067;39.548;-76.088;2022-12-29T00:09:35;52;52;
31330;PMS5003;34067;39.548;-76.088;2022-12-29T00:12:04;56;55;
31330;PMS5003;34067;39.548;-76.088;2022-12-29T00:14:33;47;44;
31330;PMS5003;34067;39.548;-76.088;2022-12-29T00:17:01;17;14;
31330;PMS5003;34067;39.548;-76.088;2022-12-29T00:19:30;15;15;
31330;PMS5003;34067;39.548;-76.088;2022-12-29T00:21:58;15;15;
31330;PMS5003;34067;39.548;-76.088;2022-12-29T00:24:27;18;15;
31330;PMS5003;34067;39.548;-76.088;2022-12-29T00:26:56;16;15;
31330;PMS5003;34067;39.548;-76.088;2022-12-29T00:29:36;19;15;
31330;PMS5003;34067;39.548;-76.088;2022-12-29T00:32:06;12;12;
31330;PMS5003;34067;39.548;-76.088;2022-12-29T00:34:36;12;12;
31330;PMS5003;34067;39.548;-76.088;2022-12-29T00:37:03;16;15;
31330;PMS5003;34067;39.548;-76.088;2022-12-29T00:39:32;18;16;
31330;PMS5003;34067;39.548;-76.088;2022-12-29T00:42:03;14;13;
31330;PMS5003;34067;39.548;-76.088;2022-12-29T00:44:32;16;15;
31330;PMS5003;34067;39.548;-76.088;2022-12-29T00:47:01;15;14;
31330;PMS5003;34067;39.548;-76.088;2022-12-29T00:49:31;15;14;
31330;PMS5003;34067;39.548;-76.088;2022-12-29T00:52:00;14;13;
31330;PMS5003;34067;39.548;-76.088;2022-12-29T00:54:30;19;19;
31330;PMS5003;34067;39.548;-76.088;2022-12-29T00:57:00;20;18;
31330;PMS5003;34067;39.548;-76.088;2022-12-29T00:59:29;29;26;
31330;PMS5003;34067;39.548;-76.088;2022-12-29T01:01:57;19;19;
31330;PMS5003;34067;39.548;-76.088;2022-12-29T01:04:26;24;23;
31330;PMS5003;34067;39.548;-76.088;2022-12-29T01:06:54;38;35;
31330;PMS5003;34067;39.548;-76.088;2022-12-29T01:09:22;31;30;
31330;PMS5003;34067;39.548;-76.088;2022-12-29T01:11:51;25;24;
31330;PMS5003;34067;39.548;-76.088;2022-12-29T01:14:20;26;26;
31330;PMS5003;34067;39.548;-76.088;2022-12-29T01:16:51;23;21;
31330;PMS5003;34067;39.548;-76.088;2022-12-29T01:19:20;24;23;
31330;PMS5003;34067;39.548;-76.088;2022-12-29T01:21:49;26;23;
31330;PMS5003;34067;39.548;-76.088;2022-12-29T01:24:18;23;21;
31330;PMS5003;34067;39.548;-76.088;2022-12-29T01:26:47;23;21;
31330;PMS5003;34067;39.548;-76.088;2022-12-29T01:29:15;26;21;
31330;PMS5003;34067;39.548;-76.088;2022-12-29T01:31:44;26;26;
31330;PMS5003;34067;39.548;-76.088;2022-12-29T01:34:12;20;20;
31330;PMS5003;34067;39.548;-76.088;2022-12-29T01:36:41;23;23;
31330;PMS5003;34067;39.548;-76.088;2022-12-29T01:39:09;22;20;
31330;PMS5003;34067;39.548;-76.088;2022-12-29T01:41:37;22;22;
31330;PMS5003;34067;39.548;-76.088;2022-12-29T01:44:55;24;24;
31330;PMS5003;34067;39.548;-76.088;2022-12-29T01:47:26;24;22;
31330;PMS5003;34067;39.548;-76.088;2022-12-29T01:50:01;15;15;
31330;PMS5003;34067;39.548;-76.088;2022-12-29T01:52:34;20;17;
31330;PMS5003;34067;39.548;-76.088;2022-12-29T01:55:06;14;14;
31330;PMS5003;34067;39.548;-76.088;2022-12-29T01:57:37;18;14;
31330;PMS5003;34067;39.548;-76.088;2022-12-29T02:00:10;19;15;
31330;PMS5003;34067;39.548;-76.088;2022-12-29T02:02:39;18;14;
31330;PMS5003;34067;39.548;-76.088;2022-12-29T02:05:11;17;14;
31330;PMS5003;34067;39.548;-76.088;2022-12-29T02:07:45;18;17;
31330;PMS5003;34067;39.548;-76.088;2022-12-29T02:10:15;15;14;
31330;PMS5003;34067;39.548;-76.088;2022-12-29T02:12:43;14;14;
31330;PMS5003;34067;39.548;-76.088;2022-12-29T02:15:13;14;13;
31330;PMS5003;34067;39.548;-76.088;2022-12-29T02:17:47;17;15;
31330;PMS5003;34067;39.548;-76.088;2022-12-29T02:20:35;17;15;
31330;PMS5003;34067;39.548;-76.088;2022-12-29T02:23:30;21;18;
31330;PMS5003;34067;39.548;-76.088;2022-12-29T02:26:20;18;17;
31330;PMS5003;34067;39.548;-76.088;2022-12-29T02:29:08;19;17;
31330;PMS5003;34067;39.548;-76.088;2022-12-29T02:31:55;22;19;
31330;PMS5003;34067;39.548;-76.088;2022-12-29T02:34:32;18;15;
31330;PMS5003;34067;39.548;-76.088;2022-12-29T02:37:11;20;17;
31330;PMS5003;34067;39.548;-76.088;2022-12-29T02:39:48;19;18;
31330;PMS5003;34067;39.548;-76.088;2022-12-29T02:42:23;22;19;
31330;PMS5003;34067;39.548;-76.088;2022-12-29T02:45:02;25;21;
31330;PMS5003;34067;39.548;-76.088;2022-12-29T02:47:35;13;13;
31330;PMS5003;34067;39.548;-76.088;2022-12-29T02:50:11;22;22;
31330;PMS5003;34067;39.548;-76.088;2022-12-29T02:52:46;21;18;
31330;PMS5003;34067;39.548;-76.088;2022-12-29T02:55:20;27;23;
31330;PMS5003;34067;39.548;-76.088;2022-12-29T02:57:47;17;17;
31330;PMS5003;34067;39.548;-76.088;2022-12-29T03:00:16;16;16;
31330;PMS5003;34067;39.548;-76.088;2022-12-29T03:02:50;21;18;
31330;PMS5003;34067;39.548;-76.088;2022-12-29T03:05:41;22;21;
31330;PMS5003;34067;39.548;-76.088;2022-12-29T03:08:23;22;22;
31330;PMS5003;34067;39.548;-76.088;2022-12-29T03:11:02;23;19;
31330;PMS5003;34067;39.548;-76.088;2022-12-29T03:13:34;23;21;
31330;PMS5003;34067;39.548;-76.088;2022-12-29T03:16:13;21;19;
31330;PMS5003;34067;39.548;-76.088;2022-12-29T03:18:50;19;18;
31330;PMS5003;34067;39.548;-76.088;2022-12-29T03:21:27;21;19;
31330;PMS5003;34067;39.548;-76.088;2022-12-29T03:24:01;23;21;
31330;PMS5003;34067;39.548;-76.088;2022-12-29T03:26:30;26;24;
31330;PMS5003;34067;39.548;-76.088;2022-12-29T03:28:59;28;24;
31330;PMS5003;34067;39.548;-76.088;2022-12-29T03:31:27;22;19;
31330;PMS5003;34067;39.548;-76.088;2022-12-29T03:33:55;22;21;
31330;PMS5003;34067;39.548;-76.088;2022-12-29T03:36:27;22;21;
31330;PMS5003;34067;39.548;-76.088;2022-12-29T03:39:04;28;24;
31330;PMS5003;34067;39.548;-76.088;2022-12-29T03:41:36;21;19;
31330;PMS5003;34067;39.548;-76.088;2022-12-29T03:44:08;22;21;
31330;PMS5003;34067;39.548;-76.088;2022-12-29T03:46:37;22;22;
31330;PMS5003;34067;39.548;-76.088;2022-12-29T03:49:05;22;21;
31330;PMS5003;34067;39.548;-76.088;2022-12-29T03:51:33;23;22;
31330;PMS5003;34067;39.548;-76.088;2022-12-29T03:54:02;19;19;
31330;PMS5003;34067;39.548;-76.088;2022-12-29T03:56:30;24;21;
31330;PMS5003;34067;39.548;-76.088;2022-12-29T03:58:57;19;19;
31330;PMS5003;34067;39.548;-76.088;2022-12-29T04:01:26;23;21;
31330;PMS5003;34067;39.548;-76.088;2022-12-29T04:03:53;22;22;
31330;PMS5003;34067;39.548;-76.088;2022-12-29T04:06:21;25;23;
31330;PMS5003;34067;39.548;-76.088;2022-12-29T04:08:49;22;21;
31330;PMS5003;34067;39.548;-76.088;2022-12-29T04:11:18;19;18;
31330;PMS5003;34067;39.548;-76.088;2022-12-29T04:13:46;14;14;
31330;PMS5003;34067;39.548;-76.088;2022-12-29T04:16:14;17;16;
31330;PMS5003;34067;39.548;-76.088;2022-12-29T04:18:42;21;17;
31330;PMS5003;34067;39.548;-76.088;2022-12-29T04:21:10;20;19;
31330;PMS5003;34067;39.548;-76.088;2022-12-29T04:23:38;19;19;
31330;PMS5003;34067;39.548;-76.088;2022-12-29T04:26:07;17;17;
31330;PMS5003;34067;39.548;-76.088;2022-12-29T04:28:35;19;18;
31330;PMS5003;34067;39.548;-76.088;2022-12-29T04:31:03;21;19;
31330;PMS5003;34067;39.548;-76.088;2022-12-29T04:33:32;19;17;
31330;PMS5003;34067;39.548;-76.088;2022-12-29T04:36:00;19;17;
31330;PMS5003;34067;39.548;-76.088;2022-12-29T04:38:29;23;23;
31330;PMS5003;34067;39.548;-76.088;2022-12-29T04:40:58;22;20;
31330;PMS5003;34067;39.548;-76.088;2022-12-29T04:43:27;19;17;
31330;PMS5003;34067;39.548;-76.088;2022-12-29T04:45:55;17;17;
31330;PMS5003;34067;39.548;-76.088;2022-12-29T04:48:23;19;18;
31330;PMS5003;34067;39.548;-76.088;2022-12-29T04:50:50;18;16;
31330;PMS5003;34067;39.548;-76.088;2022-12-29T04:53:18;16;16;
31330;PMS5003;34067;39.548;-76.088;2022-12-29T04:55:48;18;16;
31330;PMS5003;34067;39.548;-76.088;2022-12-29T04:58:16;21;16;
31330;PMS5003;34067;39.548;-76.088;2022-12-29T05:00:44;16;16;
31330;PMS5003;34067;39.548;-76.088;2022-12-29T05:03:12;19;17;
31330;PMS5003;34067;39.548;-76.088;2022-12-29T05:05:40;16;15;
31330;PMS5003;34067;39.548;-76.088;2022-12-29T05:08:09;18;16;
31330;PMS5003;34067;39.548;-76.088;2022-12-29T05:10:37;19;18;
31330;PMS5003;34067;39.548;-76.088;2022-12-29T05:13:05;17;17;
31330;PMS5003;34067;39.548;-76.088;2022-12-29T05:15:33;17;17;
31330;PMS5003;34067;39.548;-76.088;2022-12-29T05:18:02;15;15;
31330;PMS5003;34067;39.548;-76.088;2022-12-29T05:20:30;16;15;
31330;PMS5003;34067;39.548;-76.088;2022-12-29T05:22:58;16;16;
31330;PMS5003;34067;39.548;-76.088;2022-12-29T05:25:26;17;16;
31330;PMS5003;34067;39.548;-76.088;2022-12-29T05:27:54;18;18;
31330;PMS5003;34067;39.548;-76.088;2022-12-29T05:30:21;17;16;
31330;PMS5003;34067;39.548;-76.088;2022-12-29T05:32:49;15;15;
31330;PMS5003;34067;39.548;-76.088;2022-12-29T05:35:18;20;17;
31330;PMS5003;34067;39.548;-76.088;2022-12-29T05:37:45;18;18;
31330;PMS5003;34067;39.548;-76.088;2022-12-29T05:40:13;21;17;
31330;PMS5003;34067;39.548;-76.088;2022-12-29T05:42:41;21;16;
31330;PMS5003;34067;39.548;-76.088;2022-12-29T05:45:10;17;16;
31330;PMS5003;34067;39.548;-76.088;2022-12-29T05:47:37;20;17;
31330;PMS5003;34067;39.548;-76.088;2022-12-29T05:50:05;26;22;
31330;PMS5003;34067;39.548;-76.088;2022-12-29T05:52:33;19;19;
31330;PMS5003;34067;39.548;-76.088;2022-12-29T05:55:02;15;15;
31330;PMS5003;34067;39.548;-76.088;2022-12-29T05:57:30;18;17;
31330;PMS5003;34067;39.548;-76.088;2022-12-29T05:59:58;20;16;
31330;PMS5003;34067;39.548;-76.088;2022-12-29T06:03:10;19;18;
31330;PMS5003;34067;39.548;-76.088;2022-12-29T06:05:39;22;18;
31330;PMS5003;34067;39.548;-76.088;2022-12-29T06:08:07;17;17;
31330;PMS5003;34067;39.548;-76.088;2022-12-29T06:10:35;14;13;
31330;PMS5003;34067;39.548;-76.088;2022-12-29T06:13:03;20;17;
31330;PMS5003;34067;39.548;-76.088;2022-12-29T06:15:31;18;17;
31330;PMS5003;34067;39.548;-76.088;2022-12-29T06:17:59;17;17;
31330;PMS5003;34067;39.548;-76.088;2022-12-29T06:20:28;17;16;
31330;PMS5003;34067;39.548;-76.088;2022-12-29T06:22:55;18;17;
31330;PMS5003;34067;39.548;-76.088;2022-12-29T06:25:23;16;14;
31330;PMS5003;34067;39.548;-76.088;2022-12-29T06:27:51;19;17;
31330;PMS5003;34067;39.548;-76.088;2022-12-29T06:30:19;19;16;
31330;PMS5003;34067;39.548;-76.088;2022-12-29T06:32:47;17;16;
31330;PMS5003;34067;39.548;-76.088;2022-12-29T06:35:15;18;17;
31330;PMS5003;34067;39.548;-76.088;2022-12-29T06:37:42;18;16;
31330;PMS5003;34067;39.548;-76.088;2022-12-29T06:40:10;21;19;
31330;PMS5003;34067;39.548;-76.088;2022-12-29T06:42:39;16;14;
31330;PMS5003;34067;39.548;-76.088;2022-12-29T06:45:07;18;17;
31330;PMS5003;34067;39.548;-76.088;2022-12-29T06:47:35;17;15;
31330;PMS5003;34067;39.548;-76.088;2022-12-29T06:50:03;17;17;
31330;PMS5003;34067;39.548;-76.088;2022-12-29T06:52:32;21;19;
31330;PMS5003;34067;39.548;-76.088;2022-12-29T06:55:00;17;16;
31330;PMS5003;34067;39.548;-76.088;2022-12-29T06:57:28;18;18;
31330;PMS5003;34067;39.548;-76.088;2022-12-29T06:59:56;17;17;
31330;PMS5003;34067;39.548;-76.088;2022-12-29T07:02:24;22;20;
31330;PMS5003;34067;39.548;-76.088;2022-12-29T07:04:52;20;18;
31330;PMS5003;34067;39.548;-76.088;2022-12-29T07:07:19;18;17;
31330;PMS5003;34067;39.548;-76.088;2022-12-29T07:09:48;20;20;
31330;PMS5003;34067;39.548;-76.088;2022-12-29T07:12:16;25;22;
31330;PMS5003;34067;39.548;-76.088;2022-12-29T07:14:44;26;23;
31330;PMS5003;34067;39.548;-76.088;2022-12-29T07:17:13;20;18;
31330;PMS5003;34067;39.548;-76.088;2022-12-29T07:19:40;20;18;
31330;PMS5003;34067;39.548;-76.088;2022-12-29T07:22:09;19;17;
31330;PMS5003;34067;39.548;-76.088;2022-12-29T07:24:37;22;22;
31330;PMS5003;34067;39.548;-76.088;2022-12-29T07:27:05;26;21;
31330;PMS5003;34067;39.548;-76.088;2022-12-29T07:29:34;23;18;
31330;PMS5003;34067;39.548;-76.088;2022-12-29T07:32:03;20;18;
31330;PMS5003;34067;39.548;-76.088;2022-12-29T07:34:32;20;18;
31330;PMS5003;34067;39.548;-76.088;2022-12-29T07:36:59;18;17;
31330;PMS5003;34067;39.548;-76.088;2022-12-29T07:39:28;21;18;
31330;PMS5003;34067;39.548;-76.088;2022-12-29T07:41:56;20;20;
31330;PMS5003;34067;39.548;-76.088;2022-12-29T07:44:24;23;22;
31330;PMS5003;34067;39.548;-76.088;2022-12-29T07:46:52;21;21;
31330;PMS5003;34067;39.548;-76.088;2022-12-29T07:49:19;20;20;
31330;PMS5003;34067;39.548;-76.088;2022-12-29T07:51:48;23;22;
31330;PMS5003;34067;39.548;-76.088;2022-12-29T07:54:16;18;18;
31330;PMS5003;34067;39.548;-76.088;2022-12-29T07:56:44;22;21;
31330;PMS5003;34067;39.548;-76.088;2022-12-29T07:59:11;23;23;
31330;PMS5003;34067;39.548;-76.088;2022-12-29T08:01:39;27;25;
31330;PMS5003;34067;39.548;-76.088;2022-12-29T08:04:07;22;22;
31330;PMS5003;34067;39.548;-76.088;2022-12-29T08:06:35;23;21;
31330;PMS5003;34067;39.548;-76.088;2022-12-29T08:09:04;22;21;
31330;PMS5003;34067;39.548;-76.088;2022-12-29T08:11:31;20;20;
31330;PMS5003;34067;39.548;-76.088;2022-12-29T08:13:59;20;18;
31330;PMS5003;34067;39.548;-76.088;2022-12-29T08:16:27;17;17;
31330;PMS5003;34067;39.548;-76.088;2022-12-29T08:18:56;21;20;
31330;PMS5003;34067;39.548;-76.088;2022-12-29T08:21:24;22;21;
31330;PMS5003;34067;39.548;-76.088;2022-12-29T08:23:53;26;25;
31330;PMS5003;34067;39.548;-76.088;2022-12-29T08:26:21;26;25;
31330;PMS5003;34067;39.548;-76.088;2022-12-29T08:28:49;25;25;
31330;PMS5003;34067;39.548;-76.088;2022-12-29T08:31:20;22;21;
31330;PMS5003;34067;39.548;-76.088;2022-12-29T08:33:49;33;28;
31330;PMS5003;34067;39.548;-76.088;2022-12-29T08:36:17;26;25;
31330;PMS5003;34067;39.548;-76.088;2022-12-29T08:38:45;34;27;
31330;PMS5003;34067;39.548;-76.088;2022-12-29T08:41:14;22;21;
31330;PMS5003;34067;39.548;-76.088;2022-12-29T08:43:46;26;21;
31330;PMS5003;34067;39.548;-76.088;2022-12-29T08:46:14;21;18;
31330;PMS5003;34067;39.548;-76.088;2022-12-29T08:48:42;26;23;
31330;PMS5003;34067;39.548;-76.088;2022-12-29T08:51:10;21;18;
31330;PMS5003;34067;39.548;-76.088;2022-12-29T08:53:38;19;18;
31330;PMS5003;34067;39.548;-76.088;2022-12-29T08:56:08;21;19;
31330;PMS5003;34067;39.548;-76.088;2022-12-29T08:58:37;23;22;
31330;PMS5003;34067;39.548;-76.088;2022-12-29T09:01:06;21;18;
31330;PMS5003;34067;39.548;-76.088;2022-12-29T09:03:34;20;18;
31330;PMS5003;34067;39.548;-76.088;2022-12-29T09:06:01;22;20;
31330;PMS5003;34067;39.548;-76.088;2022-12-29T09:08:30;17;16;
31330;PMS5003;34067;39.548;-76.088;2022-12-29T09:11:05;21;18;
31330;PMS5003;34067;39.548;-76.088;2022-12-29T09:13:34;18;17;
31330;PMS5003;34067;39.548;-76.088;2022-12-29T09:16:02;21;21;
31330;PMS5003;34067;39.548;-76.088;2022-12-29T09:18:31;18;17;
31330;PMS5003;34067;39.548;-76.088;2022-12-29T09:21:01;20;18;
31330;PMS5003;34067;39.548;-76.088;2022-12-29T09:23:30;23;22;
31330;PMS5003;34067;39.548;-76.088;2022-12-29T09:25:58;23;20;
31330;PMS5003;34067;39.548;-76.088;2022-12-29T09:28:26;23;19;
31330;PMS5003;34067;39.548;-76.088;2022-12-29T09:30:54;21;21;
31330;PMS5003;34067;39.548;-76.088;2022-12-29T09:33:23;20;18;
31330;PMS5003;34067;39.548;-76.088;2022-12-29T09:35:52;18;16;
31330;PMS5003;34067;39.548;-76.088;2022-12-29T09:38:22;25;21;
31330;PMS5003;34067;39.548;-76.088;2022-12-29T09:40:52;18;17;
31330;PMS5003;34067;39.548;-76.088;2022-12-29T09:43:24;18;17;
31330;PMS5003;34067;39.548;-76.088;2022-12-29T09:46:10;20;17;
31330;PMS5003;34067;39.548;-76.088;2022-12-29T09:48:49;16;16;
31330;PMS5003;34067;39.548;-76.088;2022-12-29T09:51:28;20;17;
31330;PMS5003;34067;39.548;-76.088;2022-12-29T09:53:58;19;19;
31330;PMS5003;34067;39.548;-76.088;2022-12-29T09:56:30;20;19;
31330;PMS5003;34067;39.548;-76.088;2022-12-29T09:59:00;20;19;
31330;PMS5003;34067;39.548;-76.088;2022-12-29T10:01:36;19;19;
31330;PMS5003;34067;39.548;-76.088;2022-12-29T10:04:11;17;16;
31330;PMS5003;34067;39.548;-76.088;2022-12-29T10:06:41;27;22;
31330;PMS5003;34067;39.548;-76.088;2022-12-29T10:09:14;19;17;
31330;PMS5003;34067;39.548;-76.088;2022-12-29T10:11:50;20;17;
31330;PMS5003;34067;39.548;-76.088;2022-12-29T10:14:36;20;19;
31330;PMS5003;34067;39.548;-76.088;2022-12-29T10:17:18;20;19;
31330;PMS5003;34067;39.548;-76.088;2022-12-29T10:19:57;20;19;
31330;PMS5003;34067;39.548;-76.088;2022-12-29T10:22:45;30;24;
31330;PMS5003;34067;39.548;-76.088;2022-12-29T10:25:26;28;25;
31330;PMS5003;34067;39.548;-76.088;2022-12-29T10:28:01;33;29;
31330;PMS5003;34067;39.548;-76.088;2022-12-29T10:30:36;30;26;
31330;PMS5003;34067;39.548;-76.088;2022-12-29T10:33:07;29;28;
31330;PMS5003;34067;39.548;-76.088;2022-12-29T10:35:41;25;24;
31330;PMS5003;34067;39.548;-76.088;2022-12-29T10:38:12;31;30;
31330;PMS5003;34067;39.548;-76.088;2022-12-29T10:40:51;26;24;
31330;PMS5003;34067;39.548;-76.088;2022-12-29T10:43:26;31;30;
31330;PMS5003;34067;39.548;-76.088;2022-12-29T10:45:57;29;28;
31330;PMS5003;34067;39.548;-76.088;2022-12-29T10:48:29;31;29;
31330;PMS5003;34067;39.548;-76.088;2022-12-29T10:51:00;29;25;
31330;PMS5003;34067;39.548;-76.088;2022-12-29T10:53:33;28;24;
31330;PMS5003;34067;39.548;-76.088;2022-12-29T10:56:09;25;21;
31330;PMS5003;34067;39.548;-76.088;2022-12-29T10:58:49;29;25;
31330;PMS5003;34067;39.548;-76.088;2022-12-29T11:01:18;25;24;
31330;PMS5003;34067;39.548;-76.088;2022-12-29T11:03:49;31;30;
31330;PMS5003;34067;39.548;-76.088;2022-12-29T11:06:26;31;29;
31330;PMS5003;34067;39.548;-76.088;2022-12-29T11:08:56;34;30;
31330;PMS5003;34067;39.548;-76.088;2022-12-29T11:11:27;33;29;
31330;PMS5003;34067;39.548;-76.088;2022-12-29T11:14:02;28;26;
31330;PMS5003;34067;39.548;-76.088;2022-12-29T11:16:40;30;26;
31330;PMS5003;34067;39.548;-76.088;2022-12-29T11:19:20;35;33;
31330;PMS5003;34067;39.548;-76.088;2022-12-29T11:21:49;30;28;
31330;PMS5003;34067;39.548;-76.088;2022-12-29T11:24:20;28;26;
31330;PMS5003;34067;39.548;-76.088;2022-12-29T11:26:50;30;28;
31330;PMS5003;34067;39.548;-76.088;2022-12-29T11:29:22;33;28;
31330;PMS5003;34067;39.548;-76.088;2022-12-29T11:31:52;30;28;
31330;PMS5003;34067;39.548;-76.088;2022-12-29T11:34:22;28;28;
31330;PMS5003;34067;39.548;-76.088;2022-12-29T11:36:53;24;24;
31330;PMS5003;34067;39.548;-76.088;2022-12-29T11:39:31;26;25;
31330;PMS5003;34067;39.548;-76.088;2022-12-29T11:42:04;29;26;
31330;PMS5003;34067;39.548;-76.088;2022-12-29T11:44:42;26;25;
31330;PMS5003;34067;39.548;-76.088;2022-12-29T11:47:13;39;35;
31330;PMS5003;34067;39.548;-76.088;2022-12-29T11:49:50;27;27;
31330;PMS5003;34067;39.548;-76.088;2022-12-29T11:52:21;30;26;
31330;PMS5003;34067;39.548;-76.088;2022-12-29T11:54:51;35;31;
31330;PMS5003;34067;39.548;-76.088;2022-12-29T11:57:23;26;25;
31330;PMS5003;34067;39.548;-76.088;2022-12-29T11:59:52;31;28;
31330;PMS5003;34067;39.548;-76.088;2022-12-29T12:02:40;31;30;
31330;PMS5003;34067;39.548;-76.088;2022-12-29T12:05:19;35;33;
31330;PMS5003;34067;39.548;-76.088;2022-12-29T12:07:53;38;31;
31330;PMS5003;34067;39.548;-76.088;2022-12-29T12:10:29;41;35;
31330;PMS5003;34067;39.548;-76.088;2022-12-29T12:13:03;34;31;
31330;PMS5003;34067;39.548;-76.088;2022-12-29T12:15:42;35;31;
31330;PMS5003;34067;39.548;-76.088;2022-12-29T12:18:19;30;28;
31330;PMS5003;34067;39.548;-76.088;2022-12-29T12:21:00;26;25;
31330;PMS5003;34067;39.548;-76.088;2022-12-29T12:23:38;28;25;
31330;PMS5003;34067;39.548;-76.088;2022-12-29T12:26:20;26;25;
31330;PMS5003;34067;39.548;-76.088;2022-12-29T12:28:56;28;24;
31330;PMS5003;34067;39.548;-76.088;2022-12-29T12:31:37;26;25;
31330;PMS5003;34067;39.548;-76.088;2022-12-29T12:34:13;24;21;
31330;PMS5003;34067;39.548;-76.088;2022-12-29T12:37:24;25;25;
31330;PMS5003;34067;39.548;-76.088;2022-12-29T12:40:11;26;25;
31330;PMS5003;34067;39.548;-76.088;2022-12-29T12:43:01;28;26;
31330;PMS5003;34067;39.548;-76.088;2022-12-29T12:45:47;30;29;
31330;PMS5003;34067;39.548;-76.088;2022-12-29T12:48:35;29;28;
31330;PMS5003;34067;39.548;-76.088;2022-12-29T12:51:16;29;26;
31330;PMS5003;34067;39.548;-76.088;2022-12-29T12:53:58;28;25;
31330;PMS5003;34067;39.548;-76.088;2022-12-29T12:56:43;35;33;
31330;PMS5003;34067;39.548;-76.088;2022-12-29T12:59:43;44;42;
31330;PMS5003;34067;39.548;-76.088;2022-12-29T13:02:27;26;26;
31330;PMS5003;34067;39.548;-76.088;2022-12-29T13:05:07;28;24;
31330;PMS5003;34067;39.548;-76.088;2022-12-29T13:07:53;56;52;
31330;PMS5003;34067;39.548;-76.088;2022-12-29T13:10:37;34;33;
31330;PMS5003;34067;39.548;-76.088;2022-12-29T13:13:16;33;26;
31330;PMS5003;34067;39.548;-76.088;2022-12-29T13:16:05;28;25;
31330;PMS5003;34067;39.548;-76.088;2022-12-29T13:18:43;33;33;
31330;PMS5003;34067;39.548;-76.088;2022-12-29T13:21:24;38;34;
31330;PMS5003;34067;39.548;-76.088;2022-12-29T13:24:01;35;30;
31330;PMS5003;34067;39.548;-76.088;2022-12-29T13:26:39;33;30;
31330;PMS5003;34067;39.548;-76.088;2022-12-29T13:29:14;72;71;
31330;PMS5003;34067;39.548;-76.088;2022-12-29T13:31:47;30;28;
31330;PMS5003;34067;39.548;-76.088;2022-12-29T13:34:24;33;29;
31330;PMS5003;34067;39.548;-76.088;2022-12-29T13:37:01;33;31;
31330;PMS5003;34067;39.548;-76.088;2022-12-29T13:39:37;27;26;
31330;PMS5003;34067;39.548;-76.088;2022-12-29T13:42:09;32;29;
31330;PMS5003;34067;39.548;-76.088;2022-12-29T13:44:41;26;26;
31330;PMS5003;34067;39.548;-76.088;2022-12-29T13:47:18;26;25;
31330;PMS5003;34067;39.548;-76.088;2022-12-29T13:49:58;25;23;
31330;PMS5003;34067;39.548;-76.088;2022-12-29T13:52:32;30;27;
31330;PMS5003;34067;39.548;-76.088;2022-12-29T13:55:09;28;26;
31330;PMS5003;34067;39.548;-76.088;2022-12-29T13:57:51;31;29;
31330;PMS5003;34067;39.548;-76.088;2022-12-29T14:00:27;29;27;
31330;PMS5003;34067;39.548;-76.088;2022-12-29T14:03:04;30;26;
31330;PMS5003;34067;39.548;-76.088;2022-12-29T14:06:03;33;32;
31330;PMS5003;34067;39.548;-76.088;2022-12-29T14:08:41;31;29;
31330;PMS5003;34067;39.548;-76.088;2022-12-29T14:11:10;31;30;
31330;PMS5003;34067;39.548;-76.088;2022-12-29T14:13:41;31;27;
31330;PMS5003;34067;39.548;-76.088;2022-12-29T14:16:23;27;25;
31330;PMS5003;34067;39.548;-76.088;2022-12-29T14:18:55;29;29;
31330;PMS5003;34067;39.548;-76.088;2022-12-29T14:21:30;32;32;
31330;PMS5003;34067;39.548;-76.088;2022-12-29T14:24:26;29;25;
31330;PMS5003;34067;39.548;-76.088;2022-12-29T14:27:42;27;26;
31330;PMS5003;34067;39.548;-76.088;2022-12-29T14:30:51;27;26;
31330;PMS5003;34067;39.548;-76.088;2022-12-29T14:33:20;25;23;
31330;PMS5003;34067;39.548;-76.088;2022-12-29T14:35:50;28;26;
31330;PMS5003;34067;39.548;-76.088;2022-12-29T14:38:20;28;27;
31330;PMS5003;34067;39.548;-76.088;2022-12-29T14:40:50;34;32;
31330;PMS5003;34067;39.548;-76.088;2022-12-29T14:43:21;36;31;
31330;PMS5003;34067;39.548;-76.088;2022-12-29T14:45:54;36;33;
31330;PMS5003;34067;39.548;-76.088;2022-12-29T14:48:34;33;32;
31330;PMS5003;34067;39.548;-76.088;2022-12-29T14:51:34;31;30;
31330;PMS5003;34067;39.548;-76.088;2022-12-29T14:54:34;28;26;
31330;PMS5003;34067;39.548;-76.088;2022-12-29T14:57:21;33;32;
31330;PMS5003;34067;39.548;-76.088;2022-12-29T15:00:06;32;29;
31330;PMS5003;34067;39.548;-76.088;2022-12-29T15:02:47;37;36;
31330;PMS5003;34067;39.548;-76.088;2022-12-29T15:05:28;37;33;
31330;PMS5003;34067;39.548;-76.088;2022-12-29T15:08:00;29;29;
31330;PMS5003;34067;39.548;-76.088;2022-12-29T15:10:34;29;29;
31330;PMS5003;34067;39.548;-76.088;2022-12-29T15:13:13;34;31;
31330;PMS5003;34067;39.548;-76.088;2022-12-29T15:15:44;40;38;
31330;PMS5003;34067;39.548;-76.088;2022-12-29T15:18:14;34;29;
31330;PMS5003;34067;39.548;-76.088;2022-12-29T15:20:50;33;31;
31330;PMS5003;34067;39.548;-76.088;2022-12-29T15:23:20;34;34;
31330;PMS5003;34067;39.548;-76.088;2022-12-29T15:25:51;33;30;
31330;PMS5003;34067;39.548;-76.088;2022-12-29T15:28:22;35;33;
31330;PMS5003;34067;39.548;-76.088;2022-12-29T15:30:51;41;38;
31330;PMS5003;34067;39.548;-76.088;2022-12-29T15:33:23;34;31;
31330;PMS5003;34067;39.548;-76.088;2022-12-29T15:35:54;36;30;
31330;PMS5003;34067;39.548;-76.088;2022-12-29T15:38:23;37;34;
31330;PMS5003;34067;39.548;-76.088;2022-12-29T15:41:01;35;32;
31330;PMS5003;34067;39.548;-76.088;2022-12-29T15:44:08;32;31;
31330;PMS5003;34067;39.548;-76.088;2022-12-29T15:46:40;28;24;
31330;PMS5003;34067;39.548;-76.088;2022-12-29T15:49:09;24;24;
31330;PMS5003;34067;39.548;-76.088;2022-12-29T15:51:41;27;23;
31330;PMS5003;34067;39.548;-76.088;2022-12-29T15:54:13;31;27;
31330;PMS5003;34067;39.548;-76.088;2022-12-29T15:56:45;28;24;
31330;PMS5003;34067;39.548;-76.088;2022-12-29T15:59:22;26;24;
31330;PMS5003;34067;39.548;-76.088;2022-12-29T16:01:53;23;22;
31330;PMS5003;34067;39.548;-76.088;2022-12-29T16:04:22;29;26;
31330;PMS5003;34067;39.548;-76.088;2022-12-29T16:06:56;26;23;
31330;PMS5003;34067;39.548;-76.088;2022-12-29T16:09:30;25;24;
31330;PMS5003;34067;39.548;-76.088;2022-12-29T16:12:00;23;22;
31330;PMS5003;34067;39.548;-76.088;2022-12-29T16:14:31;27;24;
31330;PMS5003;34067;39.548;-76.088;2022-12-29T16:17:05;25;24;
31330;PMS5003;34067;39.548;-76.088;2022-12-29T16:19:36;28;27;
31330;PMS5003;34067;39.548;-76.088;2022-12-29T16:22:09;23;23;
31330;PMS5003;34067;39.548;-76.088;2022-12-29T16:24:39;27;24;